createdAt,value
2022-10-14T00:04:50.380Z,81.24
2022-10-14T00:09:53.352Z,81.02
2022-10-14T00:14:57.940Z,81.81
2022-10-14T00:20:01.130Z,81.37
2022-10-14T00:25:04.348Z,81.51
2022-10-14T00:30:11.009Z,81.47
2022-10-14T00:35:14.030Z,82.19
2022-10-14T00:40:17.235Z,82.02
2022-10-14T00:45:26.727Z,81.81
2022-10-14T00:50:30.851Z,82.35
2022-10-14T00:55:34.866Z,82.04
2022-10-14T01:00:41.948Z,82.11
2022-10-14T01:05:55.348Z,82.21
2022-10-14T01:11:06.757Z,83.51
2022-10-14T01:16:22.073Z,83.38
2022-10-14T01:21:30.314Z,82.69
2022-10-14T01:27:00.841Z,82.58
2022-10-14T01:32:11.520Z,82.57
2022-10-14T01:37:21.408Z,82.94
2022-10-14T01:42:28.807Z,83.32
2022-10-14T01:47:36.058Z,83.64
2022-10-14T01:52:45.070Z,83.36
2022-10-14T01:57:50.881Z,84.01
2022-10-14T02:02:55.272Z,84.18
2022-10-14T02:08:04.240Z,84.03
2022-10-14T02:13:20.500Z,84.65
2022-10-14T02:18:36.502Z,84.25
2022-10-14T02:23:46.865Z,84.00
2022-10-14T02:28:51.307Z,82.60
2022-10-14T02:33:59.838Z,81.34
2022-10-14T02:39:04.270Z,81.76
2022-10-14T02:44:07.931Z,82.16
2022-10-14T02:49:12.542Z,82.91
2022-10-14T02:54:15.758Z,83.52
2022-10-14T02:59:18.723Z,83.09
2022-10-14T03:04:23.109Z,82.12
2022-10-14T03:09:28.572Z,82.36
2022-10-14T03:14:33.811Z,82.61
2022-10-14T03:19:39.895Z,83.00
2022-10-14T03:24:44.182Z,83.03
2022-10-14T03:30:04.400Z,81.63
2022-10-14T03:35:10.829Z,82.09
2022-10-14T03:40:15.196Z,82.49
2022-10-14T03:45:18.336Z,82.15
2022-10-14T03:50:24.877Z,81.29
2022-10-14T03:55:31.668Z,80.72
2022-10-14T04:00:35.662Z,79.49
2022-10-14T04:06:06.563Z,80.14
2022-10-14T04:11:09.825Z,80.01
2022-10-14T04:16:15.693Z,80.26
2022-10-14T04:21:40.335Z,80.79
2022-10-14T04:26:45.330Z,81.14
2022-10-14T04:31:55.080Z,81.60
2022-10-14T04:37:00.550Z,81.65
2022-10-14T04:42:28.744Z,81.50
2022-10-14T04:47:36.543Z,81.83
2022-10-14T04:52:40.945Z,81.62
2022-10-14T04:57:48.316Z,81.67
2022-10-14T05:02:51.338Z,81.63
2022-10-14T05:07:57.015Z,82.01
2022-10-14T05:13:06.362Z,83.15
2022-10-14T05:18:13.851Z,82.89
2022-10-14T05:23:30.099Z,83.82
2022-10-14T05:28:35.904Z,84.39
2022-10-14T05:33:39.959Z,83.35
2022-10-14T05:38:44.678Z,83.71
2022-10-14T05:43:47.761Z,83.17
2022-10-14T05:48:51.950Z,82.94
2022-10-14T05:53:56.360Z,83.39
2022-10-14T05:59:00.344Z,83.28
2022-10-14T06:04:04.270Z,83.36
2022-10-14T06:09:11.317Z,83.23
2022-10-14T06:14:15.008Z,83.26
2022-10-14T06:19:18.109Z,83.56
2022-10-14T06:24:22.365Z,84.04
2022-10-14T06:29:26.430Z,83.38
2022-10-14T06:34:29.342Z,82.86
2022-10-14T06:39:33.653Z,83.01
2022-10-14T06:44:36.715Z,82.66
2022-10-14T06:49:40.033Z,81.36
2022-10-14T06:54:48.143Z,81.88
2022-10-14T06:59:51.496Z,80.96
2022-10-14T07:04:54.483Z,81.33
2022-10-14T07:09:59.200Z,80.84
2022-10-14T07:15:02.139Z,80.80
2022-10-14T07:20:05.602Z,81.23
2022-10-14T07:25:11.221Z,80.59
2022-10-14T07:30:17.478Z,80.68
2022-10-14T07:35:20.791Z,79.88
2022-10-14T07:40:25.077Z,79.40
2022-10-14T07:45:28.051Z,78.46
2022-10-14T07:50:31.054Z,78.13
2022-10-14T07:55:35.495Z,79.30
2022-10-14T08:00:38.751Z,77.93
2022-10-14T08:05:42.288Z,76.92
2022-10-14T08:10:46.704Z,75.31
2022-10-14T08:15:49.674Z,75.22
2022-10-14T08:20:53.113Z,74.16
2022-10-14T08:25:57.384Z,74.51
2022-10-14T08:31:00.314Z,73.61
2022-10-14T08:36:03.214Z,72.83
2022-10-14T08:41:24.318Z,71.33
2022-10-14T08:46:32.521Z,72.05
2022-10-14T08:51:36.072Z,71.97
2022-10-14T08:56:40.539Z,71.33
2022-10-14T09:01:52.139Z,71.40
2022-10-14T09:06:56.725Z,70.86
2022-10-14T09:12:03.904Z,70.55
2022-10-14T09:17:08.547Z,69.67
2022-10-14T09:22:15.974Z,69.30
2022-10-14T09:27:22.785Z,69.62
2022-10-14T09:32:30.709Z,68.43
2022-10-14T09:37:35.646Z,69.55
2022-10-14T09:42:49.743Z,68.80
2022-10-14T09:47:56.348Z,68.96
2022-10-14T09:53:03.665Z,68.65
2022-10-14T09:58:15.192Z,67.94
2022-10-14T10:03:29.446Z,67.56
2022-10-14T10:08:32.863Z,65.00
2022-10-14T10:13:45.055Z,63.22
2022-10-14T10:18:48.518Z,62.45
2022-10-14T10:23:54.920Z,64.00
2022-10-14T10:29:00.715Z,62.57
2022-10-14T10:34:13.850Z,61.92
2022-10-14T10:39:28.787Z,62.33
2022-10-14T10:44:55.355Z,63.25
2022-10-14T10:50:27.271Z,62.27
2022-10-14T10:55:39.694Z,61.21
2022-10-14T11:00:52.562Z,61.79
2022-10-14T11:06:04.004Z,61.79
2022-10-14T11:11:36.397Z,62.61
2022-10-14T11:16:50.677Z,62.39
2022-10-14T11:22:00.306Z,61.98
2022-10-14T11:27:12.236Z,62.43
2022-10-14T11:32:23.304Z,63.59
2022-10-14T11:37:31.177Z,65.58
2022-10-14T11:42:49.168Z,65.11
2022-10-14T11:47:56.330Z,64.90
2022-10-14T11:53:04.180Z,64.62
2022-10-14T11:58:14.575Z,63.36
2022-10-14T12:03:27.105Z,63.12
2022-10-14T12:08:35.950Z,61.96
2022-10-14T12:13:44.493Z,63.82
2022-10-14T12:18:53.991Z,63.83
2022-10-14T12:24:04.874Z,63.90
2022-10-14T12:29:08.475Z,63.94
2022-10-14T12:34:38.069Z,62.99
2022-10-14T12:39:44.356Z,62.66
2022-10-14T12:44:52.009Z,62.74
2022-10-14T12:50:02.576Z,61.34
2022-10-14T12:55:16.512Z,61.11
2022-10-14T13:00:31.709Z,61.46
2022-10-14T13:05:38.958Z,61.91
2022-10-14T13:10:48.370Z,61.22
2022-10-14T13:15:52.679Z,60.73
2022-10-14T13:20:56.947Z,59.95
2022-10-14T13:26:16.006Z,60.02
2022-10-14T13:31:26.676Z,59.65
2022-10-14T13:36:39.612Z,59.42
2022-10-14T13:41:45.374Z,60.33
2022-10-14T13:46:50.215Z,59.85
2022-10-14T13:51:58.816Z,59.98
2022-10-14T13:57:35.041Z,59.93
2022-10-14T14:02:27.957Z,58.41
2022-10-14T14:13:05.313Z,59.73
2022-10-14T14:18:33.931Z,59.15
2022-10-14T14:23:56.419Z,59.25
2022-10-14T14:28:59.547Z,58.38
2022-10-14T14:34:02.691Z,58.70
2022-10-14T14:39:06.969Z,60.09
2022-10-14T14:44:25.322Z,59.93
2022-10-14T14:49:31.458Z,58.72
2022-10-14T14:54:45.873Z,59.16
2022-10-14T14:59:57.980Z,59.09
2022-10-14T15:05:03.601Z,59.50
2022-10-14T15:10:09.761Z,57.96
2022-10-14T15:15:27.319Z,59.99
2022-10-14T15:20:32.020Z,60.39
2022-10-14T15:25:36.271Z,61.62
2022-10-14T15:30:54.121Z,61.75
2022-10-14T15:35:59.386Z,61.64
2022-10-14T15:41:05.359Z,63.78
2022-10-14T15:46:31.431Z,63.47
2022-10-14T15:51:34.398Z,62.62
2022-10-14T15:56:39.256Z,63.49
2022-10-14T16:01:45.122Z,65.20
2022-10-14T16:06:48.319Z,65.03
2022-10-14T16:11:57.416Z,66.10
2022-10-14T16:17:05.959Z,66.66
2022-10-14T16:22:10.435Z,66.98
2022-10-14T16:27:15.661Z,67.23
2022-10-14T16:32:18.964Z,66.45
2022-10-14T16:37:22.415Z,66.99
2022-10-14T16:42:26.936Z,67.03
2022-10-14T16:47:29.947Z,68.46
2022-10-14T16:52:55.207Z,67.76
2022-10-14T16:57:59.605Z,68.15
2022-10-14T17:03:03.187Z,69.25
2022-10-14T17:08:07.668Z,69.27
2022-10-14T17:13:12.297Z,70.71
2022-10-14T17:18:17.953Z,71.52
2022-10-14T17:23:21.151Z,72.00
2022-10-14T17:28:25.706Z,71.64
2022-10-14T17:33:28.748Z,73.01
2022-10-14T17:38:32.305Z,72.96
2022-10-14T17:43:36.858Z,72.68
2022-10-14T17:48:42.483Z,72.50
2022-10-14T17:53:46.127Z,72.55
2022-10-14T17:58:53.206Z,72.97
2022-10-14T18:03:58.390Z,73.57
2022-10-14T18:09:03.410Z,73.53
2022-10-14T18:14:09.377Z,73.21
2022-10-14T18:19:16.990Z,73.36
2022-10-14T18:24:20.289Z,73.78
2022-10-14T18:29:24.962Z,73.77
2022-10-14T18:34:27.890Z,73.88
2022-10-14T18:39:30.832Z,75.50
2022-10-14T18:44:35.153Z,75.75
2022-10-14T18:49:40.668Z,75.24
2022-10-14T18:54:44.396Z,74.70
2022-10-14T18:59:51.005Z,73.97
2022-10-14T19:04:56.057Z,75.74
2022-10-14T19:09:59.206Z,75.89
2022-10-14T19:15:03.720Z,76.29
2022-10-14T19:20:08.747Z,76.35
2022-10-14T19:25:11.865Z,76.72
2022-10-14T19:30:16.203Z,76.66
2022-10-14T19:35:21.732Z,77.99
2022-10-14T19:40:24.942Z,77.86
2022-10-14T19:45:29.259Z,78.13
2022-10-14T19:50:32.648Z,77.74
2022-10-14T19:55:35.769Z,77.54
2022-10-14T20:00:40.179Z,77.30
2022-10-14T20:05:43.075Z,77.06
2022-10-14T20:10:46.168Z,77.80
2022-10-14T20:15:55.373Z,78.40
2022-10-14T20:20:58.385Z,78.69
2022-10-14T20:26:01.679Z,78.34
2022-10-14T20:31:07.470Z,78.87
2022-10-14T20:36:13.330Z,78.50
2022-10-14T20:41:18.152Z,78.64
2022-10-14T20:46:24.139Z,78.32
2022-10-14T20:51:27.342Z,78.89
2022-10-14T20:56:32.011Z,78.95
2022-10-14T21:01:37.630Z,79.52
2022-10-14T21:06:41.202Z,79.97
2022-10-14T21:11:44.674Z,79.72
2022-10-14T21:16:48.954Z,78.51
2022-10-14T21:21:51.849Z,79.81
2022-10-14T21:26:55.133Z,77.35
2022-10-14T21:31:59.421Z,74.71
2022-10-14T21:37:02.307Z,75.01
2022-10-14T21:42:05.418Z,74.80
2022-10-14T21:47:09.658Z,74.17
2022-10-14T21:52:12.532Z,73.45
2022-10-14T21:57:17.234Z,73.69
2022-10-14T22:02:22.646Z,72.02
2022-10-14T22:07:25.905Z,73.50
2022-10-14T22:12:30.374Z,71.99
2022-10-14T22:17:34.702Z,71.27
2022-10-14T22:22:37.615Z,72.36
2022-10-14T22:27:40.548Z,72.35
2022-10-14T22:32:44.816Z,71.51
2022-10-14T22:37:47.723Z,73.24
2022-10-14T22:42:51.545Z,74.75
2022-10-14T22:47:56.013Z,76.58
2022-10-14T22:52:58.935Z,80.14
2022-10-14T22:58:01.811Z,77.55
2022-10-14T23:03:06.264Z,78.07
2022-10-14T23:08:11.407Z,78.98
2022-10-14T23:13:14.333Z,78.59
2022-10-14T23:18:18.579Z,79.18
2022-10-14T23:23:21.481Z,79.17
2022-10-14T23:28:26.359Z,80.97
2022-10-14T23:33:33.068Z,80.45
2022-10-14T23:38:36.864Z,78.12
2022-10-14T23:43:40.003Z,78.17
2022-10-14T23:48:51.415Z,78.26
2022-10-14T23:54:04.033Z,77.28
2022-10-14T23:59:07.086Z,76.98
